createdAt,value
2019-05-07T00:00:47.965Z,3.27
2019-05-07T00:03:15.336Z,3.60
2019-05-07T00:05:42.838Z,5.30
2019-05-07T00:08:12.146Z,5.63
2019-05-07T00:10:39.360Z,8.57
2019-05-07T00:13:06.632Z,8.00
2019-05-07T00:15:33.907Z,5.90
2019-05-07T00:18:03.222Z,6.80
2019-05-07T00:20:32.551Z,7.53
2019-05-07T00:22:59.240Z,7.73
2019-05-07T00:25:26.622Z,6.87
2019-05-07T00:27:53.893Z,6.63
2019-05-07T00:30:22.330Z,5.87
2019-05-07T00:32:49.828Z,5.60
2019-05-07T00:35:24.636Z,5.57
2019-05-07T00:37:56.320Z,6.20
2019-05-07T00:40:25.224Z,5.67
2019-05-07T00:43:11.881Z,6.20
2019-05-07T00:45:42.139Z,6.03
2019-05-07T00:48:09.139Z,6.77
2019-05-07T00:50:38.080Z,7.80
2019-05-07T00:53:05.580Z,7.10
2019-05-07T00:55:32.917Z,7.87
2019-05-07T00:58:02.225Z,7.90
2019-05-07T01:00:29.270Z,6.57
2019-05-07T01:02:56.536Z,9.03
2019-05-07T01:05:23.849Z,9.37
2019-05-07T01:07:52.961Z,7.80
2019-05-07T01:10:22.270Z,7.87
2019-05-07T01:12:49.380Z,8.93
2019-05-07T01:15:27.865Z,8.20
2019-05-07T01:17:45.624Z,8.20
2019-05-07T01:20:13.011Z,8.80
2019-05-07T01:22:42.303Z,8.93
2019-05-07T01:25:09.504Z,8.70
2019-05-07T01:27:36.873Z,9.67
2019-05-07T01:30:04.513Z,8.57
2019-05-07T01:32:33.420Z,9.30
2019-05-07T01:35:05.152Z,9.20
2019-05-07T01:37:32.676Z,11.00
2019-05-07T01:40:00.071Z,9.23
2019-05-07T01:42:27.373Z,10.10
2019-05-07T01:44:54.651Z,8.97
2019-05-07T01:47:23.779Z,8.43
2019-05-07T01:49:52.378Z,7.97
2019-05-07T01:52:19.993Z,6.90
2019-05-07T01:54:47.602Z,7.50
2019-05-07T01:57:15.049Z,7.67
2019-05-07T01:59:42.840Z,7.90
2019-05-07T02:02:18.086Z,7.43
2019-05-07T02:04:52.211Z,7.33
2019-05-07T02:07:24.405Z,8.50
2019-05-07T02:10:02.816Z,9.07
2019-05-07T02:12:35.098Z,8.27
2019-05-07T02:15:02.812Z,7.60
2019-05-07T02:17:32.024Z,8.30
2019-05-07T02:19:59.450Z,7.97
2019-05-07T02:22:26.776Z,7.40
2019-05-07T02:24:54.053Z,8.40
2019-05-07T02:27:22.092Z,8.40
2019-05-07T02:29:49.620Z,8.10
2019-05-07T02:32:16.898Z,8.43
2019-05-07T02:34:44.532Z,8.77
2019-05-07T02:37:13.506Z,9.20
2019-05-07T02:39:45.205Z,7.40
2019-05-07T02:42:13.140Z,8.53
2019-05-07T02:45:03.702Z,8.13
2019-05-07T02:47:33.231Z,8.43
2019-05-07T02:50:03.055Z,7.17
2019-05-07T02:52:48.405Z,8.90
2019-05-07T02:55:23.009Z,9.03
2019-05-07T02:57:49.389Z,8.67
2019-05-07T03:00:19.380Z,8.83
2019-05-07T03:02:45.854Z,7.93
2019-05-07T03:05:13.867Z,8.20
2019-05-07T03:07:42.731Z,8.37
2019-05-07T03:10:13.640Z,8.83
2019-05-07T03:12:42.755Z,7.83
2019-05-07T03:15:08.685Z,7.83
2019-05-07T03:17:36.025Z,8.17
2019-05-07T03:20:06.019Z,8.63
2019-05-07T03:22:33.920Z,9.47
2019-05-07T03:25:03.520Z,7.83
2019-05-07T03:27:33.789Z,7.97
2019-05-07T03:30:04.636Z,9.43
2019-05-07T03:32:38.761Z,8.63
2019-05-07T03:35:07.987Z,7.07
2019-05-07T03:37:36.581Z,9.43
2019-05-07T03:40:05.519Z,8.23
2019-05-07T03:42:33.725Z,7.73
2019-05-07T03:45:19.213Z,8.30
2019-05-07T03:47:48.152Z,7.80
2019-05-07T03:50:15.561Z,8.23
2019-05-07T03:52:43.154Z,7.53
2019-05-07T03:55:14.160Z,8.30
2019-05-07T03:57:39.844Z,7.60
2019-05-07T04:00:08.249Z,6.77
2019-05-07T04:02:35.533Z,7.20
2019-05-07T04:05:04.401Z,8.33
2019-05-07T04:07:33.732Z,8.90
2019-05-07T04:10:04.355Z,8.23
2019-05-07T04:12:30.835Z,8.83
2019-05-07T04:14:58.161Z,8.73
2019-05-07T04:17:26.866Z,8.77
2019-05-07T04:19:54.676Z,8.83
2019-05-07T04:22:26.455Z,8.97
2019-05-07T04:24:53.277Z,7.50
2019-05-07T04:27:25.016Z,8.00
2019-05-07T04:29:53.175Z,7.87
2019-05-07T04:32:23.234Z,9.83
2019-05-07T04:34:54.995Z,9.70
2019-05-07T04:37:23.980Z,8.57
2019-05-07T04:39:54.372Z,8.17
2019-05-07T04:42:24.698Z,7.40
2019-05-07T04:44:53.983Z,10.77
2019-05-07T04:47:34.556Z,8.37
2019-05-07T04:49:53.271Z,8.50
2019-05-07T04:52:26.853Z,7.70
2019-05-07T04:54:54.251Z,8.43
2019-05-07T04:57:27.785Z,7.50
2019-05-07T04:59:55.785Z,7.77
2019-05-07T05:02:24.702Z,7.70
2019-05-07T05:04:53.142Z,7.77
2019-05-07T05:07:22.478Z,7.70
2019-05-07T05:09:49.618Z,8.40
2019-05-07T05:12:17.977Z,7.80
2019-05-07T05:14:45.348Z,7.37
2019-05-07T05:17:13.061Z,7.53
2019-05-07T05:19:40.422Z,7.00
2019-05-07T05:22:24.746Z,7.30
2019-05-07T05:25:08.593Z,7.10
2019-05-07T05:27:35.893Z,8.20
2019-05-07T05:30:05.169Z,8.37
2019-05-07T05:32:32.531Z,8.70
2019-05-07T05:35:03.334Z,8.03
2019-05-07T05:37:32.143Z,8.87
2019-05-07T05:40:06.232Z,9.67
2019-05-07T05:42:30.341Z,10.40
2019-05-07T05:44:58.007Z,8.40
2019-05-07T05:47:25.296Z,8.20
2019-05-07T05:49:53.384Z,9.37
2019-05-07T05:52:25.055Z,9.30
2019-05-07T05:54:54.041Z,9.00
2019-05-07T05:57:25.783Z,9.10
2019-05-07T06:00:03.614Z,8.90
2019-05-07T06:02:32.673Z,9.17
2019-05-07T06:05:02.267Z,8.50
2019-05-07T06:07:34.057Z,9.43
2019-05-07T06:10:12.864Z,9.20
2019-05-07T06:12:52.291Z,9.47
2019-05-07T06:15:22.237Z,11.07
2019-05-07T06:17:51.921Z,11.60
2019-05-07T06:20:26.712Z,11.13
2019-05-07T06:22:58.332Z,11.60
2019-05-07T06:25:26.428Z,12.30
2019-05-07T06:27:53.955Z,10.83
2019-05-07T06:30:22.750Z,12.50
2019-05-07T06:32:52.265Z,11.63
2019-05-07T06:35:19.538Z,13.23
2019-05-07T06:37:47.036Z,13.80
2019-05-07T06:40:29.196Z,14.00
2019-05-07T06:43:05.083Z,13.60
2019-05-07T06:45:35.430Z,12.37
2019-05-07T06:48:03.094Z,13.23
2019-05-07T06:50:32.549Z,13.10
2019-05-07T06:52:59.484Z,12.30
2019-05-07T06:55:26.761Z,12.57
2019-05-07T06:57:54.112Z,10.57
2019-05-07T07:00:23.333Z,12.43
2019-05-07T07:02:58.190Z,11.60
2019-05-07T07:05:33.244Z,12.63
2019-05-07T07:08:02.389Z,11.90
2019-05-07T07:10:32.249Z,12.50
2019-05-07T07:13:02.408Z,11.93
2019-05-07T07:15:31.927Z,11.73
2019-05-07T07:17:58.958Z,11.23
2019-05-07T07:20:26.346Z,10.17
2019-05-07T07:22:53.617Z,9.53
2019-05-07T07:25:22.940Z,10.10
2019-05-07T07:27:51.950Z,8.50
2019-05-07T07:30:35.414Z,8.43
2019-05-07T07:33:04.496Z,7.97
2019-05-07T07:35:32.247Z,8.37
2019-05-07T07:38:02.385Z,9.73
2019-05-07T07:40:37.351Z,7.70
2019-05-07T07:43:07.015Z,8.20
2019-05-07T07:45:33.610Z,7.60
2019-05-07T07:48:02.243Z,7.70
2019-05-07T07:50:29.876Z,7.20
2019-05-07T07:52:57.154Z,7.60
2019-05-07T07:55:26.157Z,7.03
2019-05-07T07:58:11.918Z,6.00
2019-05-07T08:00:43.720Z,5.80
2019-05-07T08:03:14.505Z,5.27
2019-05-07T08:05:42.712Z,5.50
2019-05-07T08:08:12.671Z,5.17
2019-05-07T08:10:39.332Z,5.10
2019-05-07T08:13:06.660Z,5.10
2019-05-07T08:15:34.043Z,5.37
2019-05-07T08:18:02.830Z,4.43
2019-05-07T08:20:32.445Z,4.60
2019-05-07T08:22:59.521Z,4.30
2019-05-07T08:25:37.505Z,4.47
2019-05-07T08:28:05.042Z,5.07
2019-05-07T08:30:32.755Z,3.90
2019-05-07T08:33:04.632Z,4.40
2019-05-07T08:35:33.586Z,4.37
2019-05-07T08:38:02.287Z,4.40
2019-05-07T08:40:29.793Z,4.70
2019-05-07T08:42:58.020Z,4.90
2019-05-07T08:45:43.735Z,4.23
2019-05-07T08:48:21.741Z,4.10
2019-05-07T08:50:49.109Z,4.90
2019-05-07T08:53:16.589Z,4.70
2019-05-07T08:55:44.002Z,5.23
2019-05-07T08:58:12.061Z,4.47
2019-05-07T09:00:41.685Z,4.40
2019-05-07T09:03:19.325Z,4.80
2019-05-07T09:05:37.947Z,4.30
2019-05-07T09:08:05.272Z,4.30
2019-05-07T09:10:32.949Z,4.47
2019-05-07T09:13:00.213Z,4.27
2019-05-07T09:15:27.480Z,3.83
2019-05-07T09:17:56.365Z,4.40
2019-05-07T09:20:23.624Z,4.60
2019-05-07T09:22:51.829Z,3.70
2019-05-07T09:25:19.348Z,4.40
2019-05-07T09:27:48.254Z,3.77
2019-05-07T09:30:22.012Z,4.03
2019-05-07T09:32:52.154Z,5.13
2019-05-07T09:35:27.102Z,4.17
2019-05-07T09:37:54.406Z,3.90
2019-05-07T09:40:21.819Z,4.20
2019-05-07T09:42:49.072Z,4.23
2019-05-07T09:45:16.537Z,4.70
2019-05-07T09:47:43.813Z,3.87
2019-05-07T09:50:11.910Z,4.40
2019-05-07T09:52:39.425Z,4.20
2019-05-07T09:55:16.677Z,4.07
2019-05-07T09:57:35.964Z,4.47
2019-05-07T10:00:04.540Z,4.60
2019-05-07T10:02:32.186Z,4.40
2019-05-07T10:05:02.065Z,3.50
2019-05-07T10:07:28.729Z,4.37
2019-05-07T10:09:56.077Z,4.53
2019-05-07T10:12:25.062Z,4.03
2019-05-07T10:14:52.436Z,3.47
2019-05-07T10:17:22.406Z,3.77
2019-05-07T10:19:49.825Z,3.97
2019-05-07T10:22:17.126Z,4.33
2019-05-07T10:24:44.456Z,4.20
2019-05-07T10:27:12.658Z,4.50
2019-05-07T10:29:42.598Z,4.70
2019-05-07T10:32:09.281Z,4.10
2019-05-07T10:34:36.616Z,4.10
2019-05-07T10:37:04.224Z,4.27
2019-05-07T10:39:32.578Z,3.47
2019-05-07T10:42:01.826Z,3.93
2019-05-07T10:44:32.135Z,3.53
2019-05-07T10:47:17.425Z,4.23
2019-05-07T10:49:46.424Z,4.00
2019-05-07T10:52:13.689Z,4.07
2019-05-07T10:54:41.027Z,3.67
2019-05-07T10:57:08.316Z,4.00
2019-05-07T10:59:35.580Z,4.10
2019-05-07T11:02:07.444Z,3.97
2019-05-07T11:04:42.287Z,4.20
2019-05-07T11:07:03.908Z,3.73
2019-05-07T11:09:32.829Z,4.00
2019-05-07T11:12:02.417Z,3.83
2019-05-07T11:14:29.333Z,4.73
2019-05-07T11:17:02.620Z,3.80
2019-05-07T11:19:32.317Z,3.63
2019-05-07T11:21:59.236Z,3.93
2019-05-07T11:24:26.509Z,4.70
2019-05-07T11:26:53.976Z,3.83
2019-05-07T11:29:22.059Z,4.13
2019-05-07T11:31:49.487Z,3.40
2019-05-07T11:34:16.796Z,4.13
2019-05-07T11:36:44.132Z,3.40
2019-05-07T11:39:12.240Z,3.70
2019-05-07T11:41:53.638Z,3.27
2019-05-07T11:44:23.043Z,4.20
2019-05-07T11:46:52.595Z,4.53
2019-05-07T11:49:27.966Z,4.10
2019-05-07T11:51:56.928Z,4.40
2019-05-07T11:54:24.207Z,4.17
2019-05-07T11:56:52.284Z,4.17
2019-05-07T11:59:22.053Z,3.90
2019-05-07T12:01:52.764Z,4.13
2019-05-07T12:04:20.365Z,4.30
2019-05-07T12:06:47.628Z,3.80
2019-05-07T12:09:14.968Z,3.57
2019-05-07T12:11:42.694Z,3.63
2019-05-07T12:14:12.153Z,4.00
2019-05-07T12:16:39.089Z,4.17
2019-05-07T12:19:06.385Z,3.57
2019-05-07T12:21:33.818Z,3.93
2019-05-07T12:24:02.238Z,4.13
2019-05-07T12:26:30.104Z,4.57
2019-05-07T12:28:57.372Z,3.77
2019-05-07T12:31:26.281Z,3.90
2019-05-07T12:34:13.688Z,3.80
2019-05-07T12:36:40.957Z,3.87
2019-05-07T12:39:08.460Z,4.37
2019-05-07T12:41:35.836Z,4.30
2019-05-07T12:44:04.881Z,4.40
2019-05-07T12:46:33.442Z,4.17
2019-05-07T12:49:02.989Z,4.03
2019-05-07T12:51:34.565Z,3.80
2019-05-07T12:54:03.417Z,4.50
2019-05-07T12:56:32.069Z,3.83
2019-05-07T12:58:59.490Z,3.67
2019-05-07T13:01:28.465Z,3.87
2019-05-07T13:04:03.389Z,3.83
2019-05-07T13:06:32.554Z,3.90
2019-05-07T13:08:59.716Z,4.27
2019-05-07T13:11:27.053Z,3.87
2019-05-07T13:13:54.316Z,4.07
2019-05-07T13:16:22.118Z,4.20
2019-05-07T13:18:49.577Z,4.10
2019-05-07T13:21:16.836Z,3.80
2019-05-07T13:23:44.109Z,4.10
2019-05-07T13:26:11.850Z,4.50
2019-05-07T13:28:39.117Z,3.80
2019-05-07T13:31:06.393Z,4.33
2019-05-07T13:33:34.548Z,3.57
2019-05-07T13:36:02.358Z,4.17
2019-05-07T13:38:32.343Z,4.33
2019-05-07T13:41:02.227Z,4.20
2019-05-07T13:43:37.361Z,4.50
2019-05-07T13:46:08.968Z,4.07
2019-05-07T13:48:38.141Z,4.30
2019-05-07T13:51:05.471Z,4.20
2019-05-07T13:53:32.837Z,4.20
2019-05-07T13:56:02.203Z,4.90
2019-05-07T13:58:29.442Z,3.87
2019-05-07T14:01:16.609Z,4.37
2019-05-07T14:03:44.034Z,4.50
2019-05-07T14:06:13.009Z,4.30
2019-05-07T14:08:42.354Z,4.10
2019-05-07T14:11:12.111Z,5.10
2019-05-07T14:13:43.428Z,4.43
2019-05-07T14:16:13.430Z,4.53
2019-05-07T14:18:40.761Z,4.70
2019-05-07T14:21:08.028Z,3.97
2019-05-07T14:23:35.593Z,4.10
2019-05-07T14:26:03.232Z,4.37
2019-05-07T14:28:32.504Z,4.30
2019-05-07T14:31:01.711Z,4.30
2019-05-07T14:33:42.246Z,4.47
2019-05-07T14:36:11.942Z,4.53
2019-05-07T14:38:51.868Z,4.67
2019-05-07T14:41:18.897Z,4.17
2019-05-07T14:43:48.077Z,3.90
2019-05-07T14:46:15.341Z,4.77
2019-05-07T14:48:43.895Z,4.20
2019-05-07T14:51:12.698Z,4.53
2019-05-07T14:53:40.425Z,3.70
2019-05-07T14:56:07.789Z,3.80
2019-05-07T14:58:35.240Z,4.13
2019-05-07T15:01:02.757Z,5.03
2019-05-07T15:03:31.923Z,5.13
2019-05-07T15:05:59.453Z,4.20
2019-05-07T15:08:26.873Z,4.10
2019-05-07T15:10:54.267Z,4.20
2019-05-07T15:13:21.868Z,3.90
2019-05-07T15:15:49.716Z,4.73
2019-05-07T15:18:22.827Z,4.17
2019-05-07T15:20:52.389Z,3.63
2019-05-07T15:23:22.534Z,4.23
2019-05-07T15:25:51.710Z,3.57
2019-05-07T15:28:19.388Z,4.63
2019-05-07T15:30:54.160Z,4.40
2019-05-07T15:33:21.782Z,4.47
2019-05-07T15:35:49.232Z,4.40
2019-05-07T15:38:16.527Z,4.80
2019-05-07T15:40:43.863Z,3.57
2019-05-07T15:43:12.906Z,4.87
2019-05-07T15:45:40.244Z,14.40
2019-05-07T15:48:07.553Z,3.90
2019-05-07T15:50:34.888Z,4.07
2019-05-07T15:53:03.821Z,4.60
2019-05-07T15:55:31.091Z,4.43
2019-05-07T15:57:58.620Z,4.40
2019-05-07T16:00:30.676Z,4.93
2019-05-07T16:03:02.731Z,4.00
2019-05-07T16:05:31.914Z,4.77
2019-05-07T16:07:59.055Z,5.07
2019-05-07T16:10:26.386Z,4.27
2019-05-07T16:12:53.920Z,10.07
2019-05-07T16:15:22.474Z,4.10
2019-05-07T16:17:54.725Z,3.80
2019-05-07T16:20:22.835Z,4.13
2019-05-07T16:22:54.827Z,4.30
2019-05-07T16:25:22.434Z,4.40
2019-05-07T16:27:49.909Z,4.10
2019-05-07T16:30:17.472Z,4.27
2019-05-07T16:32:44.812Z,3.53
2019-05-07T16:35:12.612Z,4.47
2019-05-07T16:37:39.988Z,3.90
2019-05-07T16:40:07.420Z,4.23
2019-05-07T16:42:34.724Z,4.40
2019-05-07T16:45:02.883Z,4.43
2019-05-07T16:47:30.328Z,4.07
2019-05-07T16:49:57.703Z,4.77
2019-05-07T16:52:25.754Z,4.20
2019-05-07T16:54:53.084Z,4.30
2019-05-07T16:57:33.370Z,4.37
2019-05-07T17:00:02.708Z,4.43
2019-05-07T17:02:49.021Z,3.80
2019-05-07T17:05:16.428Z,4.03
2019-05-07T17:07:54.623Z,4.97
2019-05-07T17:10:22.355Z,4.07
2019-05-07T17:12:52.248Z,4.87
2019-05-07T17:15:18.954Z,4.60
2019-05-07T17:17:46.216Z,5.00
2019-05-07T17:20:13.866Z,4.30
2019-05-07T17:22:42.767Z,4.50
2019-05-07T17:25:28.532Z,5.57
2019-05-07T17:27:56.057Z,6.20
2019-05-07T17:30:23.384Z,5.90
2019-05-07T17:32:52.533Z,4.80
2019-05-07T17:35:19.717Z,5.77
2019-05-07T17:37:46.988Z,5.00
2019-05-07T17:40:14.328Z,4.60
2019-05-07T17:42:41.660Z,5.10
2019-05-07T17:45:09.125Z,5.47
2019-05-07T17:47:36.397Z,4.70
2019-05-07T17:50:06.273Z,5.10
2019-05-07T17:52:33.561Z,5.33
2019-05-07T17:55:02.179Z,5.60
2019-05-07T17:57:29.566Z,5.50
2019-05-07T17:59:56.930Z,6.50
2019-05-07T18:02:25.840Z,5.70
2019-05-07T18:04:54.687Z,5.43
2019-05-07T18:07:22.195Z,5.77
2019-05-07T18:09:49.460Z,5.67
2019-05-07T18:12:16.773Z,5.97
2019-05-07T18:14:44.145Z,5.57
2019-05-07T18:17:15.837Z,5.40
2019-05-07T18:19:43.096Z,5.83
2019-05-07T18:22:12.660Z,5.47
2019-05-07T18:24:39.490Z,5.77
2019-05-07T18:27:08.465Z,6.10
2019-05-07T18:29:35.761Z,6.40
2019-05-07T18:32:04.898Z,6.07
2019-05-07T18:34:32.437Z,5.63
2019-05-07T18:37:01.769Z,6.20
2019-05-07T18:39:28.741Z,5.67
2019-05-07T18:41:56.077Z,5.60
2019-05-07T18:44:23.433Z,6.00
2019-05-07T18:46:52.691Z,6.13
2019-05-07T18:49:19.688Z,6.33
2019-05-07T18:51:46.985Z,6.03
2019-05-07T18:54:26.975Z,5.40
2019-05-07T18:56:43.365Z,6.10
2019-05-07T18:59:11.324Z,6.37
2019-05-07T19:01:42.193Z,6.77
2019-05-07T19:04:09.252Z,6.63
2019-05-07T19:06:36.536Z,6.07
2019-05-07T19:09:05.409Z,6.67
2019-05-07T19:11:32.681Z,7.00
2019-05-07T19:13:59.981Z,6.20
2019-05-07T19:16:27.312Z,5.90
2019-05-07T19:18:54.599Z,6.17
2019-05-07T19:21:22.360Z,6.30
2019-05-07T19:23:49.989Z,5.67
2019-05-07T19:26:17.248Z,5.80
2019-05-07T19:28:44.687Z,5.47
2019-05-07T19:31:12.540Z,5.03
2019-05-07T19:33:41.961Z,6.23
2019-05-07T19:36:09.051Z,5.70
2019-05-07T19:38:36.317Z,5.53
2019-05-07T19:41:03.654Z,6.60
2019-05-07T19:43:32.563Z,6.33
2019-05-07T19:46:02.733Z,6.83
2019-05-07T19:48:32.137Z,5.90
2019-05-07T19:50:58.876Z,5.80
2019-05-07T19:53:26.143Z,5.73
2019-05-07T19:56:04.197Z,6.13
2019-05-07T19:58:32.847Z,5.90
2019-05-07T20:01:01.125Z,6.33
2019-05-07T20:03:28.483Z,6.47
2019-05-07T20:05:55.745Z,6.63
2019-05-07T20:08:43.607Z,5.77
2019-05-07T20:11:28.229Z,5.70
2019-05-07T20:13:55.526Z,5.33
2019-05-07T20:16:23.285Z,5.20
2019-05-07T20:18:52.418Z,5.50
2019-05-07T20:21:19.732Z,6.80
2019-05-07T20:23:47.026Z,6.20
2019-05-07T20:26:16.583Z,6.23
2019-05-07T20:28:45.048Z,5.23
2019-05-07T20:31:12.546Z,5.57
2019-05-07T20:33:41.974Z,6.17
2019-05-07T20:36:08.940Z,5.60
2019-05-07T20:38:36.214Z,6.67
2019-05-07T20:41:03.555Z,6.93
2019-05-07T20:43:32.657Z,6.13
2019-05-07T20:46:02.728Z,5.87
2019-05-07T20:48:32.355Z,6.47
2019-05-07T20:50:59.107Z,6.47
2019-05-07T20:53:44.713Z,5.80
2019-05-07T20:56:12.790Z,6.57
2019-05-07T20:58:40.157Z,5.70
2019-05-07T21:01:07.511Z,6.23
2019-05-07T21:03:34.776Z,6.33
2019-05-07T21:06:02.333Z,5.57
2019-05-07T21:08:31.914Z,6.53
2019-05-07T21:11:02.550Z,5.97
2019-05-07T21:13:33.931Z,6.30
2019-05-07T21:15:59.149Z,6.50
2019-05-07T21:18:26.453Z,5.93
2019-05-07T21:20:53.860Z,6.13
2019-05-07T21:23:23.131Z,6.23
2019-05-07T21:25:52.458Z,7.20
2019-05-07T21:28:19.346Z,6.70
2019-05-07T21:30:46.609Z,6.00
2019-05-07T21:33:13.873Z,6.50
2019-05-07T21:35:42.913Z,7.97
2019-05-07T21:38:12.492Z,6.43
2019-05-07T21:40:39.145Z,6.73
2019-05-07T21:43:06.517Z,6.00
2019-05-07T21:45:33.790Z,6.50
2019-05-07T21:48:02.547Z,8.40
2019-05-07T21:50:29.988Z,6.47
2019-05-07T21:53:07.718Z,6.73
2019-05-07T21:55:39.660Z,6.57
2019-05-07T21:58:08.569Z,5.93
2019-05-07T22:00:43.425Z,6.30
2019-05-07T22:03:12.548Z,6.30
2019-05-07T22:05:44.065Z,5.93
2019-05-07T22:08:09.112Z,6.50
2019-05-07T22:10:36.377Z,6.43
2019-05-07T22:13:03.723Z,6.40
2019-05-07T22:15:31.857Z,6.00
2019-05-07T22:17:59.277Z,5.90
2019-05-07T22:20:26.553Z,6.10
2019-05-07T22:22:53.949Z,7.53
2019-05-07T22:25:22.243Z,6.53
2019-05-07T22:27:49.688Z,6.77
2019-05-07T22:30:24.440Z,6.90
2019-05-07T22:32:59.360Z,5.97
2019-05-07T22:35:30.723Z,6.30
2019-05-07T22:37:57.988Z,5.47
2019-05-07T22:40:25.349Z,6.33
2019-05-07T22:42:52.618Z,6.10
2019-05-07T22:45:19.892Z,6.23
2019-05-07T22:47:47.213Z,7.07
2019-05-07T22:50:14.554Z,7.20
2019-05-07T22:52:41.821Z,7.00
2019-05-07T22:55:09.166Z,6.63
2019-05-07T22:57:38.224Z,6.53
2019-05-07T23:00:07.645Z,6.40
2019-05-07T23:02:34.906Z,6.60
2019-05-07T23:05:02.932Z,6.47
2019-05-07T23:07:32.733Z,6.73
2019-05-07T23:09:59.429Z,6.90
2019-05-07T23:12:26.772Z,6.30
2019-05-07T23:14:54.086Z,7.53
2019-05-07T23:17:22.221Z,7.00
2019-05-07T23:19:52.115Z,6.47
2019-05-07T23:22:18.796Z,7.07
2019-05-07T23:24:46.133Z,6.77
2019-05-07T23:27:14.868Z,6.97
2019-05-07T23:29:43.909Z,7.37
2019-05-07T23:32:12.650Z,7.37
2019-05-07T23:34:40.038Z,6.80
2019-05-07T23:37:07.332Z,7.70
2019-05-07T23:39:42.398Z,7.47
2019-05-07T23:42:17.179Z,7.17
2019-05-07T23:44:44.517Z,7.90
2019-05-07T23:47:12.244Z,7.50
2019-05-07T23:49:39.676Z,6.70
2019-05-07T23:52:06.945Z,7.70
2019-05-07T23:54:34.217Z,7.03
2019-05-07T23:57:07.069Z,6.60
2019-05-07T23:59:32.691Z,6.90
